createdAt,value
2019-03-25T00:02:28.385Z,10.20
2019-03-25T00:04:59.499Z,9.27
2019-03-25T00:07:30.667Z,9.93
2019-03-25T00:10:01.664Z,9.80
2019-03-25T00:12:32.726Z,9.30
2019-03-25T00:15:03.920Z,8.33
2019-03-25T00:17:34.890Z,6.83
2019-03-25T00:20:06.464Z,6.33
2019-03-25T00:22:37.504Z,6.03
2019-03-25T00:25:09.370Z,5.07
2019-03-25T00:27:40.498Z,4.60
2019-03-25T00:30:11.755Z,3.70
2019-03-25T00:32:42.796Z,3.97
2019-03-25T00:35:13.909Z,3.90
2019-03-25T00:37:44.779Z,3.27
2019-03-25T00:40:16.024Z,3.37
2019-03-25T00:42:47.179Z,2.83
2019-03-25T00:45:18.474Z,2.80
2019-03-25T00:47:49.351Z,2.30
2019-03-25T00:50:20.367Z,2.63
2019-03-25T00:52:51.332Z,2.30
2019-03-25T00:55:22.280Z,2.20
2019-03-25T00:57:53.210Z,3.40
2019-03-25T01:00:24.255Z,2.20
2019-03-25T01:02:56.204Z,1.57
2019-03-25T01:05:27.337Z,2.03
2019-03-25T01:07:58.605Z,2.37
2019-03-25T01:10:29.531Z,1.77
2019-03-25T01:13:00.548Z,2.10
2019-03-25T01:15:31.515Z,2.00
2019-03-25T01:18:02.512Z,1.90
2019-03-25T01:20:33.403Z,2.50
2019-03-25T01:23:04.412Z,1.67
2019-03-25T01:25:35.532Z,1.83
2019-03-25T01:28:06.428Z,1.53
2019-03-25T01:30:37.364Z,1.53
2019-03-25T01:33:08.372Z,1.67
2019-03-25T01:35:39.240Z,2.50
2019-03-25T01:38:10.179Z,1.97
2019-03-25T01:40:41.313Z,1.63
2019-03-25T01:43:12.475Z,1.97
2019-03-25T01:45:43.416Z,1.70
2019-03-25T01:48:14.403Z,2.33
2019-03-25T01:50:45.284Z,1.63
2019-03-25T01:53:16.398Z,1.83
2019-03-25T01:55:48.331Z,1.67
2019-03-25T01:58:19.373Z,2.13
2019-03-25T02:00:50.375Z,1.60
2019-03-25T02:03:22.336Z,2.03
2019-03-25T02:05:53.684Z,1.97
2019-03-25T02:08:24.695Z,2.60
2019-03-25T02:10:55.662Z,1.80
2019-03-25T02:13:26.601Z,1.90
2019-03-25T02:15:57.544Z,2.00
2019-03-25T02:18:28.543Z,1.87
2019-03-25T02:20:59.623Z,2.00
2019-03-25T02:23:30.667Z,2.13
2019-03-25T02:26:01.707Z,1.63
2019-03-25T02:28:32.718Z,2.73
2019-03-25T02:31:03.703Z,1.90
2019-03-25T02:33:34.627Z,2.10
2019-03-25T02:36:05.669Z,2.93
2019-03-25T02:38:36.682Z,2.63
2019-03-25T02:41:07.767Z,2.33
2019-03-25T02:43:38.944Z,2.60
2019-03-25T02:46:09.936Z,2.20
2019-03-25T02:48:40.933Z,2.63
2019-03-25T02:51:11.925Z,2.00
2019-03-25T02:53:42.858Z,2.10
2019-03-25T02:56:13.794Z,2.37
2019-03-25T02:58:44.807Z,2.63
2019-03-25T03:01:16.083Z,2.30
2019-03-25T03:03:47.011Z,1.93
2019-03-25T03:06:18.371Z,2.23
2019-03-25T03:08:49.311Z,2.60
2019-03-25T03:11:20.349Z,2.30
2019-03-25T03:13:51.844Z,2.50
2019-03-25T03:16:22.954Z,2.43
2019-03-25T03:18:54.159Z,2.23
2019-03-25T03:21:25.177Z,2.80
2019-03-25T03:23:56.174Z,2.27
2019-03-25T03:26:27.183Z,2.03
2019-03-25T03:28:58.153Z,2.77
2019-03-25T03:31:29.100Z,2.60
2019-03-25T03:34:00.019Z,2.10
2019-03-25T03:36:30.975Z,2.33
2019-03-25T03:39:01.992Z,2.60
2019-03-25T03:41:33.362Z,2.80
2019-03-25T03:44:04.444Z,3.73
2019-03-25T03:46:35.440Z,2.90
2019-03-25T03:49:06.695Z,3.27
2019-03-25T03:51:37.791Z,2.93
2019-03-25T03:54:08.745Z,3.10
2019-03-25T03:56:40.019Z,3.37
2019-03-25T03:59:11.065Z,2.87
2019-03-25T04:01:42.178Z,3.93
2019-03-25T04:04:13.462Z,3.13
2019-03-25T04:06:44.490Z,3.30
2019-03-25T04:09:15.532Z,3.30
2019-03-25T04:11:47.666Z,3.97
2019-03-25T04:14:18.540Z,3.13
2019-03-25T04:16:49.580Z,3.23
2019-03-25T04:19:20.623Z,18.97
2019-03-25T04:21:52.585Z,4.37
2019-03-25T04:24:23.747Z,3.77
2019-03-25T04:26:54.777Z,4.40
2019-03-25T04:29:25.713Z,3.93
2019-03-25T04:31:56.747Z,3.13
2019-03-25T04:34:27.748Z,4.10
2019-03-25T04:36:58.734Z,4.27
2019-03-25T04:39:29.674Z,3.93
2019-03-25T04:42:00.708Z,3.80
2019-03-25T04:44:31.758Z,3.10
2019-03-25T04:47:02.772Z,3.83
2019-03-25T04:49:33.730Z,3.70
2019-03-25T04:52:04.772Z,3.40
2019-03-25T04:54:35.792Z,3.17
2019-03-25T04:57:06.750Z,3.40
2019-03-25T04:59:37.796Z,3.63
2019-03-25T05:02:09.755Z,4.33
2019-03-25T05:04:40.682Z,3.07
2019-03-25T05:07:11.941Z,3.20
2019-03-25T05:09:42.880Z,3.10
2019-03-25T05:12:13.819Z,2.87
2019-03-25T05:14:45.065Z,3.13
2019-03-25T05:17:16.078Z,3.07
2019-03-25T05:19:46.943Z,3.33
2019-03-25T05:22:17.984Z,2.93
2019-03-25T05:24:48.923Z,3.27
2019-03-25T05:27:19.927Z,3.70
2019-03-25T05:29:50.906Z,3.60
2019-03-25T05:32:21.841Z,3.50
2019-03-25T05:34:52.988Z,3.57
2019-03-25T05:37:25.260Z,3.10
2019-03-25T05:39:56.267Z,3.10
2019-03-25T05:42:27.348Z,3.33
2019-03-25T05:44:58.326Z,3.57
2019-03-25T05:47:29.225Z,3.40
2019-03-25T05:50:00.385Z,3.77
2019-03-25T05:52:31.507Z,3.50
2019-03-25T05:55:02.549Z,2.93
2019-03-25T05:57:33.736Z,3.37
2019-03-25T06:00:05.142Z,3.20
2019-03-25T06:02:36.182Z,3.20
2019-03-25T06:05:07.267Z,3.27
2019-03-25T06:07:38.369Z,3.70
2019-03-25T06:10:09.613Z,3.73
2019-03-25T06:12:42.423Z,3.60
2019-03-25T06:15:13.439Z,3.93
2019-03-25T06:17:44.378Z,4.60
2019-03-25T06:20:15.725Z,3.30
2019-03-25T06:22:46.664Z,3.60
2019-03-25T06:25:17.606Z,4.03
2019-03-25T06:27:48.716Z,4.23
2019-03-25T06:30:19.946Z,4.17
2019-03-25T06:32:50.931Z,4.20
2019-03-25T06:35:21.944Z,3.70
2019-03-25T06:37:52.912Z,3.83
2019-03-25T06:40:23.851Z,4.60
2019-03-25T06:42:54.987Z,4.67
2019-03-25T06:45:26.011Z,4.70
2019-03-25T06:47:57.283Z,4.60
2019-03-25T06:50:29.018Z,3.83
2019-03-25T06:52:59.979Z,3.50
2019-03-25T06:55:31.145Z,3.77
2019-03-25T06:58:02.174Z,3.60
2019-03-25T07:00:33.310Z,2.93
2019-03-25T07:03:04.296Z,2.90
2019-03-25T07:05:35.360Z,3.10
2019-03-25T07:08:06.739Z,3.20
2019-03-25T07:10:38.120Z,2.87
2019-03-25T07:13:09.134Z,2.47
2019-03-25T07:15:40.174Z,3.57
2019-03-25T07:18:11.112Z,3.80
2019-03-25T07:20:42.134Z,2.30
2019-03-25T07:23:13.197Z,3.63
2019-03-25T07:25:44.134Z,2.60
2019-03-25T07:28:15.180Z,2.63
2019-03-25T07:30:46.351Z,3.03
2019-03-25T07:33:17.359Z,2.47
2019-03-25T07:35:48.308Z,3.00
2019-03-25T07:38:19.248Z,3.13
2019-03-25T07:40:50.384Z,2.33
2019-03-25T07:43:21.538Z,2.67
2019-03-25T07:45:52.463Z,2.63
2019-03-25T07:48:23.403Z,3.13
2019-03-25T07:50:54.450Z,3.03
2019-03-25T07:53:25.689Z,2.57
2019-03-25T07:55:56.736Z,2.70
2019-03-25T07:58:27.686Z,3.20
2019-03-25T08:00:58.629Z,3.03
2019-03-25T08:03:29.717Z,4.00
2019-03-25T08:06:00.730Z,2.20
2019-03-25T08:08:31.684Z,2.63
2019-03-25T08:11:02.640Z,2.40
2019-03-25T08:13:33.617Z,2.60
2019-03-25T08:16:04.551Z,2.93
2019-03-25T08:18:35.556Z,3.03
2019-03-25T08:21:06.633Z,3.37
2019-03-25T08:23:37.575Z,2.90
2019-03-25T08:26:08.819Z,2.57
2019-03-25T08:28:39.757Z,2.43
2019-03-25T08:31:10.870Z,3.33
2019-03-25T08:33:41.840Z,2.83
2019-03-25T08:36:12.837Z,2.97
2019-03-25T08:38:43.717Z,2.90
2019-03-25T08:41:14.847Z,2.90
2019-03-25T08:43:45.883Z,3.20
2019-03-25T08:46:16.842Z,3.10
2019-03-25T08:48:47.779Z,3.23
2019-03-25T08:51:18.721Z,2.92
2019-03-25T08:53:50.681Z,3.37
2019-03-25T08:56:21.699Z,3.10
2019-03-25T08:58:52.768Z,2.77
2019-03-25T09:01:23.807Z,3.22
2019-03-25T09:03:55.775Z,3.03
2019-03-25T09:06:26.812Z,2.90
2019-03-25T09:08:58.067Z,3.87
2019-03-25T09:11:29.409Z,3.10
2019-03-25T09:14:00.347Z,2.90
2019-03-25T09:16:31.368Z,3.03
2019-03-25T09:19:02.330Z,3.47
2019-03-25T09:21:33.270Z,4.23
2019-03-25T09:24:04.408Z,3.03
2019-03-25T09:26:35.451Z,3.15
2019-03-25T09:29:06.390Z,2.95
2019-03-25T09:31:37.333Z,3.37
2019-03-25T09:34:08.376Z,2.95
2019-03-25T09:36:39.310Z,3.37
2019-03-25T09:39:10.378Z,3.50
2019-03-25T09:41:41.395Z,3.58
2019-03-25T09:44:12.536Z,3.17
2019-03-25T09:46:43.555Z,3.62
2019-03-25T09:49:14.515Z,3.58
2019-03-25T09:51:46.755Z,3.02
2019-03-25T09:54:17.724Z,3.70
2019-03-25T09:56:48.663Z,3.65
2019-03-25T09:59:19.609Z,3.70
2019-03-25T10:01:50.644Z,3.67
2019-03-25T10:04:21.583Z,3.60
2019-03-25T10:06:52.950Z,2.70
2019-03-25T10:09:24.076Z,3.13
2019-03-25T10:11:55.167Z,7.40
2019-03-25T10:14:26.059Z,3.40
2019-03-25T10:16:57.096Z,3.70
2019-03-25T10:19:28.212Z,3.80
2019-03-25T10:21:59.179Z,3.00
2019-03-25T10:24:30.119Z,2.80
2019-03-25T10:27:01.059Z,3.00
2019-03-25T10:29:32.067Z,3.20
2019-03-25T10:32:03.139Z,2.97
2019-03-25T10:34:34.080Z,3.50
2019-03-25T10:37:05.354Z,3.20
2019-03-25T10:39:36.265Z,3.30
2019-03-25T10:42:07.307Z,3.27
2019-03-25T10:44:38.555Z,3.30
2019-03-25T10:47:09.562Z,2.67
2019-03-25T10:49:40.863Z,4.53
2019-03-25T10:52:11.880Z,3.30
2019-03-25T10:54:43.115Z,2.90
2019-03-25T10:57:14.375Z,3.47
2019-03-25T10:59:45.317Z,3.90
2019-03-25T11:02:16.423Z,4.00
2019-03-25T11:04:47.399Z,4.33
2019-03-25T11:07:18.639Z,3.00
2019-03-25T11:09:49.981Z,3.37
2019-03-25T11:12:21.035Z,4.00
2019-03-25T11:14:52.123Z,3.23
2019-03-25T11:17:23.184Z,3.03
2019-03-25T11:19:54.162Z,3.93
2019-03-25T11:22:25.197Z,3.00
2019-03-25T11:24:56.251Z,3.53
2019-03-25T11:27:27.351Z,2.87
2019-03-25T11:29:59.856Z,2.90
2019-03-25T11:32:30.800Z,2.63
2019-03-25T11:35:01.735Z,3.47
2019-03-25T11:37:32.747Z,3.17
2019-03-25T11:40:03.715Z,3.17
2019-03-25T11:42:35.687Z,3.10
2019-03-25T11:45:07.633Z,2.80
2019-03-25T11:47:38.808Z,3.75
2019-03-25T11:50:10.030Z,2.77
2019-03-25T11:52:41.063Z,3.50
2019-03-25T11:55:12.216Z,2.85
2019-03-25T11:57:44.793Z,3.05
2019-03-25T12:00:17.576Z,3.47
2019-03-25T12:02:48.671Z,48.35
2019-03-25T12:05:19.663Z,37.08
2019-03-25T12:07:50.599Z,60.52
2019-03-25T12:10:21.654Z,19.55
2019-03-25T12:12:52.687Z,71.35
2019-03-25T12:15:24.030Z,53.42
2019-03-25T12:17:55.070Z,20.95
2019-03-25T12:20:26.008Z,25.80
2019-03-25T12:22:58.074Z,23.80
2019-03-25T12:25:29.020Z,10.15
2019-03-25T12:28:00.164Z,4.42
2019-03-25T12:30:31.166Z,10.55
2019-03-25T12:33:04.318Z,10.58
2019-03-25T12:35:35.095Z,4.80
2019-03-25T12:38:06.088Z,4.37
2019-03-25T12:40:37.276Z,4.62
2019-03-25T12:43:08.248Z,4.37
2019-03-25T12:45:39.401Z,4.53
2019-03-25T12:48:10.556Z,4.60
2019-03-25T12:50:41.479Z,3.50
2019-03-25T12:53:12.713Z,2.98
2019-03-25T12:55:43.777Z,2.87
2019-03-25T12:58:14.767Z,3.12
2019-03-25T13:00:46.720Z,3.55
2019-03-25T13:03:17.706Z,3.30
2019-03-25T13:05:48.896Z,3.60
2019-03-25T13:08:19.994Z,3.45
2019-03-25T13:10:51.084Z,3.00
2019-03-25T13:13:22.178Z,5.78
2019-03-25T13:15:53.224Z,3.12
2019-03-25T13:18:24.164Z,2.83
2019-03-25T13:20:55.212Z,3.02
2019-03-25T13:23:26.242Z,3.00
2019-03-25T13:25:57.180Z,2.77
2019-03-25T13:28:28.119Z,3.00
2019-03-25T13:30:59.127Z,2.90
2019-03-25T13:33:30.115Z,3.27
2019-03-25T13:36:01.041Z,3.00
2019-03-25T13:38:31.979Z,2.80
2019-03-25T13:41:03.020Z,3.15
2019-03-25T13:43:33.961Z,3.25
2019-03-25T13:46:05.846Z,2.75
2019-03-25T13:48:37.112Z,3.17
2019-03-25T13:51:08.189Z,3.52
2019-03-25T13:53:39.249Z,3.05
2019-03-25T13:56:10.190Z,3.08
2019-03-25T13:58:41.129Z,2.75
2019-03-25T14:01:12.067Z,2.92
2019-03-25T14:03:44.031Z,2.72
2019-03-25T14:06:15.175Z,3.00
2019-03-25T14:08:46.182Z,2.85
2019-03-25T14:11:17.155Z,3.08
2019-03-25T14:13:49.329Z,2.98
2019-03-25T14:16:20.569Z,2.80
2019-03-25T14:18:51.578Z,3.22
2019-03-25T14:21:22.651Z,2.87
2019-03-25T14:23:54.668Z,2.85
2019-03-25T14:26:25.553Z,2.52
2019-03-25T14:28:56.491Z,2.80
2019-03-25T14:31:27.437Z,2.10
2019-03-25T14:33:59.651Z,2.33
2019-03-25T14:36:30.540Z,2.33
2019-03-25T14:39:01.484Z,2.70
2019-03-25T14:41:32.417Z,2.80
2019-03-25T14:44:03.458Z,2.30
2019-03-25T14:46:34.566Z,1.85
2019-03-25T14:49:05.582Z,2.40
2019-03-25T14:51:36.470Z,1.72
2019-03-25T14:54:07.471Z,2.80
2019-03-25T14:56:38.347Z,2.15
2019-03-25T14:59:09.298Z,2.60
2019-03-25T15:01:40.430Z,2.22
2019-03-25T15:04:12.710Z,2.47
2019-03-25T15:06:43.653Z,2.15
2019-03-25T15:09:14.678Z,2.60
2019-03-25T15:11:45.732Z,2.55
2019-03-25T15:14:16.875Z,2.52
2019-03-25T15:16:47.883Z,2.55
2019-03-25T15:19:18.754Z,2.47
2019-03-25T15:21:50.717Z,2.10
2019-03-25T15:24:21.658Z,2.27
2019-03-25T15:26:52.652Z,2.92
2019-03-25T15:29:23.636Z,2.85
2019-03-25T15:31:54.648Z,2.20
2019-03-25T15:34:25.926Z,2.70
2019-03-25T15:36:56.964Z,2.20
2019-03-25T15:39:28.077Z,3.12
2019-03-25T15:42:09.891Z,2.62
2019-03-25T15:44:51.071Z,2.35
2019-03-25T15:47:22.154Z,2.85
2019-03-25T15:49:56.278Z,2.77
2019-03-25T15:52:27.347Z,3.20
2019-03-25T15:54:58.224Z,2.40
2019-03-25T15:57:30.326Z,2.90
2019-03-25T16:00:01.236Z,2.62
2019-03-25T16:02:32.365Z,2.37
2019-03-25T16:05:03.305Z,2.33
2019-03-25T16:07:34.247Z,2.35
2019-03-25T16:10:05.300Z,2.75
2019-03-25T16:12:36.396Z,2.65
2019-03-25T16:15:08.191Z,2.70
2019-03-25T16:17:39.227Z,2.85
2019-03-25T16:20:11.292Z,2.85
2019-03-25T16:22:42.241Z,2.90
2019-03-25T16:25:27.061Z,2.42
2019-03-25T16:27:58.080Z,2.30
2019-03-25T16:30:29.286Z,2.22
2019-03-25T16:33:00.295Z,2.58
2019-03-25T16:35:31.265Z,2.50
2019-03-25T16:38:02.303Z,3.02
2019-03-25T16:40:33.246Z,2.80
2019-03-25T16:43:04.355Z,2.00
2019-03-25T16:45:35.325Z,2.33
2019-03-25T16:48:06.470Z,2.85
2019-03-25T16:50:37.455Z,2.45
2019-03-25T16:53:08.450Z,2.70
2019-03-25T16:55:39.390Z,3.15
2019-03-25T16:58:10.405Z,2.43
2019-03-25T17:00:41.374Z,2.23
2019-03-25T17:03:14.038Z,2.43
2019-03-25T17:05:44.988Z,2.47
2019-03-25T17:08:17.351Z,2.30
2019-03-25T17:10:48.299Z,3.17
2019-03-25T17:13:20.267Z,2.50
2019-03-25T17:15:51.406Z,2.53
2019-03-25T17:18:22.345Z,2.60
2019-03-25T17:20:53.361Z,2.40
2019-03-25T17:23:24.328Z,3.07
2019-03-25T17:25:55.365Z,2.20
2019-03-25T17:28:27.329Z,2.50
2019-03-25T17:30:58.414Z,2.83
2019-03-25T17:33:29.412Z,3.07
2019-03-25T17:36:00.351Z,2.40
2019-03-25T17:38:31.365Z,3.53
2019-03-25T17:41:02.334Z,2.30
2019-03-25T17:43:34.500Z,2.10
2019-03-25T17:46:05.547Z,2.57
2019-03-25T17:48:36.791Z,3.70
2019-03-25T17:51:07.840Z,3.30
2019-03-25T17:53:38.873Z,2.63
2019-03-25T17:56:10.922Z,2.77
2019-03-25T17:58:41.978Z,3.23
2019-03-25T18:01:18.447Z,3.83
2019-03-25T18:03:49.492Z,2.97
2019-03-25T18:06:20.427Z,2.97
2019-03-25T18:08:51.437Z,3.23
2019-03-25T18:11:22.986Z,3.33
2019-03-25T18:13:55.912Z,2.90
2019-03-25T18:16:27.070Z,2.90
2019-03-25T18:18:57.987Z,2.70
2019-03-25T18:21:28.976Z,3.00
2019-03-25T18:24:00.043Z,2.63
2019-03-25T18:26:31.316Z,2.90
2019-03-25T18:29:02.361Z,3.10
2019-03-25T18:31:42.812Z,4.03
2019-03-25T18:34:06.125Z,3.00
2019-03-25T18:36:37.021Z,4.00
2019-03-25T18:39:09.451Z,3.30
2019-03-25T18:41:40.432Z,2.57
2019-03-25T18:44:11.682Z,3.10
2019-03-25T18:46:44.061Z,3.27
2019-03-25T18:49:15.140Z,3.07
2019-03-25T18:51:46.406Z,3.30
2019-03-25T18:54:17.295Z,3.27
2019-03-25T18:56:48.221Z,3.30
2019-03-25T18:59:19.231Z,3.00
2019-03-25T19:01:54.514Z,3.37
2019-03-25T19:04:22.931Z,3.43
2019-03-25T19:06:53.885Z,3.33
2019-03-25T19:09:26.335Z,3.07
2019-03-25T19:11:57.397Z,3.37
2019-03-25T19:14:28.480Z,2.90
2019-03-25T19:16:59.490Z,3.00
2019-03-25T19:19:30.764Z,2.80
2019-03-25T19:22:01.832Z,3.20
2019-03-25T19:24:32.814Z,3.53
2019-03-25T19:27:03.787Z,8.10
2019-03-25T19:29:34.859Z,4.00
2019-03-25T19:32:07.136Z,3.30
2019-03-25T19:34:38.339Z,4.77
2019-03-25T19:37:09.354Z,5.90
2019-03-25T19:39:40.354Z,3.73
2019-03-25T19:42:11.277Z,4.53
2019-03-25T19:44:42.308Z,4.57
2019-03-25T19:47:13.367Z,3.40
2019-03-25T19:49:44.505Z,2.57
2019-03-25T19:52:16.596Z,2.73
2019-03-25T19:54:47.972Z,3.27
2019-03-25T19:57:19.048Z,2.80
2019-03-25T19:59:50.110Z,2.00
2019-03-25T20:02:21.112Z,1.87
2019-03-25T20:04:52.074Z,2.53
2019-03-25T20:07:23.315Z,2.50
2019-03-25T20:09:55.630Z,2.80
2019-03-25T20:12:27.885Z,2.50
2019-03-25T20:14:58.898Z,2.33
2019-03-25T20:17:30.143Z,2.03
2019-03-25T20:20:01.131Z,3.30
2019-03-25T20:22:32.248Z,2.00
2019-03-25T20:25:03.228Z,1.93
2019-03-25T20:27:34.124Z,2.07
2019-03-25T20:30:05.808Z,2.47
2019-03-25T20:32:37.098Z,2.50
2019-03-25T20:35:09.443Z,2.00
2019-03-25T20:37:40.373Z,2.60
2019-03-25T20:40:11.670Z,2.23
2019-03-25T20:42:43.160Z,2.57
2019-03-25T20:45:18.230Z,2.33
2019-03-25T20:47:48.372Z,2.10
2019-03-25T20:50:19.451Z,2.47
2019-03-25T20:52:50.499Z,2.03
2019-03-25T20:55:21.474Z,2.07
2019-03-25T20:57:52.587Z,2.73
2019-03-25T21:00:50.289Z,2.90
2019-03-25T21:03:21.470Z,2.87
2019-03-25T21:05:52.803Z,3.10
2019-03-25T21:08:24.047Z,2.50
2019-03-25T21:10:55.314Z,2.60
2019-03-25T21:13:26.299Z,2.93
2019-03-25T21:15:57.400Z,2.37
2019-03-25T21:18:28.440Z,2.63
2019-03-25T21:21:00.079Z,2.50
2019-03-25T21:23:31.158Z,2.50
2019-03-25T21:26:02.133Z,2.27
2019-03-25T21:28:33.206Z,2.13
2019-03-25T21:31:04.145Z,2.80
2019-03-25T21:33:35.383Z,2.67
2019-03-25T21:36:07.866Z,2.50
2019-03-25T21:38:38.932Z,2.17
2019-03-25T21:41:09.877Z,2.37
2019-03-25T21:43:41.064Z,2.13
2019-03-25T21:46:11.940Z,2.97
2019-03-25T21:48:42.886Z,3.03
2019-03-25T21:51:14.036Z,2.83
2019-03-25T21:53:45.107Z,2.57
2019-03-25T21:56:16.124Z,3.03
2019-03-25T21:58:47.042Z,2.77
2019-03-25T22:01:18.070Z,2.40
2019-03-25T22:03:50.073Z,3.17
2019-03-25T22:06:21.273Z,2.33
2019-03-25T22:08:52.425Z,3.23
2019-03-25T22:11:23.360Z,2.77
2019-03-25T22:13:55.432Z,3.40
2019-03-25T22:16:26.635Z,2.57
2019-03-25T22:18:57.611Z,2.73
2019-03-25T22:21:28.545Z,2.70
2019-03-25T22:24:00.612Z,2.50
2019-03-25T22:26:31.551Z,2.60
2019-03-25T22:29:02.490Z,2.80
2019-03-25T22:31:33.496Z,2.87
2019-03-25T22:34:04.473Z,2.70
2019-03-25T22:36:35.515Z,3.30
2019-03-25T22:39:08.088Z,2.77
2019-03-25T22:41:39.103Z,3.20
2019-03-25T22:44:10.070Z,2.73
2019-03-25T22:46:41.007Z,3.60
2019-03-25T22:49:11.991Z,3.93
2019-03-25T22:51:43.058Z,3.23
2019-03-25T22:54:14.175Z,2.63
2019-03-25T22:56:45.173Z,2.90
2019-03-25T22:59:16.190Z,3.33
2019-03-25T23:01:47.156Z,2.80
2019-03-25T23:04:18.099Z,3.20
2019-03-25T23:06:49.031Z,3.23
2019-03-25T23:09:20.063Z,3.23
2019-03-25T23:11:51.012Z,3.50
2019-03-25T23:14:22.043Z,2.97
2019-03-25T23:16:53.204Z,3.00
2019-03-25T23:19:24.549Z,3.00
2019-03-25T23:21:55.598Z,3.37
2019-03-25T23:24:26.834Z,2.80
2019-03-25T23:26:57.838Z,3.23
2019-03-25T23:29:31.265Z,3.13
2019-03-25T23:32:02.312Z,2.93
2019-03-25T23:34:33.255Z,3.70
2019-03-25T23:37:04.192Z,3.33
2019-03-25T23:39:35.130Z,3.70
2019-03-25T23:42:06.139Z,3.10
2019-03-25T23:44:38.205Z,3.30
2019-03-25T23:47:09.176Z,3.50
2019-03-25T23:49:40.318Z,3.43
2019-03-25T23:52:11.492Z,2.70
2019-03-25T23:54:42.526Z,3.20
2019-03-25T23:57:13.441Z,3.13
2019-03-25T23:59:44.383Z,3.63
